createdAt,value
2018-09-08T00:01:10.924Z,67.46
2018-09-08T00:02:10.935Z,67.08
2018-09-08T00:04:03.864Z,67.55
2018-09-08T00:05:03.883Z,67.55
2018-09-08T00:06:56.797Z,67.75
2018-09-08T00:07:56.808Z,67.46
2018-09-08T00:09:49.718Z,67.55
2018-09-08T00:10:49.728Z,67.36
2018-09-08T00:12:42.633Z,67.55
2018-09-08T00:13:42.652Z,67.55
2018-09-08T00:15:35.567Z,67.55
2018-09-08T00:16:35.579Z,66.89
2018-09-08T00:18:28.479Z,67.18
2018-09-08T00:19:28.497Z,66.83
2018-09-08T00:21:21.415Z,66.83
2018-09-08T00:22:21.423Z,66.92
2018-09-08T00:24:14.334Z,66.63
2018-09-08T00:25:14.348Z,66.25
2018-09-08T00:27:07.261Z,66.44
2018-09-08T00:28:07.276Z,66.25
2018-09-08T00:30:00.199Z,65.48
2018-09-08T00:31:00.198Z,65.58
2018-09-08T00:32:53.100Z,65.33
2018-09-08T00:33:53.119Z,65.01
2018-09-08T00:35:46.033Z,65.14
2018-09-08T00:36:46.042Z,64.56
2018-09-08T00:38:38.946Z,64.75
2018-09-08T00:39:38.964Z,64.85
2018-09-08T00:41:31.878Z,64.75
2018-09-08T00:42:31.894Z,64.47
2018-09-08T00:44:24.797Z,64.09
2018-09-08T00:45:24.815Z,64.18
2018-09-08T00:47:17.729Z,64.09
2018-09-08T00:48:17.744Z,64.09
2018-09-08T00:50:10.648Z,63.42
2018-09-08T00:51:10.666Z,63.70
2018-09-08T00:53:03.587Z,63.70
2018-09-08T00:54:03.590Z,63.80
2018-09-08T00:55:56.506Z,63.64
2018-09-08T00:56:56.520Z,63.89
2018-09-08T00:58:49.427Z,63.51
2018-09-08T00:59:49.443Z,63.45
2018-09-08T01:01:42.363Z,63.35
2018-09-08T01:02:42.369Z,62.59
2018-09-08T01:04:35.278Z,62.87
2018-09-08T01:05:35.294Z,63.06
2018-09-08T01:07:28.221Z,62.68
2018-09-08T01:08:28.220Z,63.06
2018-09-08T01:10:21.129Z,63.06
2018-09-08T01:11:21.144Z,63.16
2018-09-08T01:13:14.605Z,62.87
2018-09-08T01:14:14.081Z,62.77
2018-09-08T01:16:06.987Z,62.87
2018-09-08T01:17:06.994Z,62.68
2018-09-08T01:18:59.913Z,62.68
2018-09-08T01:19:59.920Z,62.68
2018-09-08T01:21:52.824Z,62.87
2018-09-08T01:22:52.845Z,62.77
2018-09-08T01:24:45.761Z,62.68
2018-09-08T01:25:45.773Z,62.68
2018-09-08T01:27:38.687Z,62.68
2018-09-08T01:28:38.700Z,62.30
2018-09-08T01:30:31.605Z,62.68
2018-09-08T01:31:31.624Z,62.87
2018-09-08T01:33:24.537Z,62.77
2018-09-08T01:34:24.548Z,62.74
2018-09-08T01:36:18.629Z,62.74
2018-09-08T01:37:18.651Z,62.37
2018-09-08T01:39:11.564Z,62.84
2018-09-08T01:40:11.576Z,63.03
2018-09-08T01:42:04.639Z,63.23
2018-09-08T01:43:04.659Z,63.13
2018-09-08T01:44:57.571Z,63.32
2018-09-08T01:45:57.581Z,63.80
2018-09-08T01:47:50.487Z,63.51
2018-09-08T01:48:50.508Z,64.25
2018-09-08T01:50:43.423Z,63.96
2018-09-08T01:51:43.429Z,63.96
2018-09-08T01:53:36.355Z,64.15
2018-09-08T01:54:36.352Z,63.96
2018-09-08T01:56:29.259Z,64.25
2018-09-08T01:57:29.283Z,64.25
2018-09-08T01:59:22.192Z,64.82
2018-09-08T02:00:22.203Z,64.82
2018-09-08T02:02:15.300Z,64.62
2018-09-08T02:03:15.265Z,65.39
2018-09-08T02:05:08.295Z,65.11
2018-09-08T02:06:08.293Z,65.20
2018-09-08T02:08:01.196Z,65.01
2018-09-08T02:09:01.215Z,65.48
2018-09-08T02:10:54.129Z,65.68
2018-09-08T02:11:54.141Z,65.48
2018-09-08T02:13:47.051Z,66.41
2018-09-08T02:14:47.071Z,65.93
2018-09-08T02:16:40.000Z,66.13
2018-09-08T02:17:40.014Z,66.41
2018-09-08T02:19:32.946Z,66.60
2018-09-08T02:20:32.933Z,66.50
2018-09-08T02:22:25.836Z,66.41
2018-09-08T02:23:25.856Z,66.79
2018-09-08T02:25:18.801Z,66.99
2018-09-08T02:26:18.780Z,67.08
2018-09-08T02:28:11.766Z,67.46
2018-09-08T02:29:11.704Z,67.55
2018-09-08T02:31:04.620Z,67.36
2018-09-08T02:32:04.635Z,67.36
2018-09-08T02:33:57.556Z,67.27
2018-09-08T02:34:57.564Z,67.18
2018-09-08T02:36:50.476Z,67.75
2018-09-08T02:37:50.482Z,68.19
2018-09-08T02:39:43.424Z,67.81
2018-09-08T02:40:43.401Z,68.23
2018-09-08T02:42:36.314Z,68.38
2018-09-08T02:43:36.326Z,68.19
2018-09-08T02:45:29.242Z,68.19
2018-09-08T02:46:29.255Z,68.38
2018-09-08T02:48:22.150Z,68.57
2018-09-08T02:49:22.171Z,68.48
2018-09-08T02:51:15.081Z,68.76
2018-09-08T02:52:15.090Z,69.05
2018-09-08T02:54:07.992Z,69.15
2018-09-08T02:55:08.012Z,68.86
2018-09-08T02:57:00.922Z,69.05
2018-09-08T02:58:00.930Z,69.05
2018-09-08T02:59:53.836Z,69.53
2018-09-08T03:00:53.855Z,69.62
2018-09-08T03:02:46.775Z,69.15
2018-09-08T03:03:46.776Z,69.24
2018-09-08T03:05:39.680Z,69.62
2018-09-08T03:06:39.701Z,69.91
2018-09-08T03:08:33.783Z,69.53
2018-09-08T03:09:34.438Z,69.82
2018-09-08T03:11:26.714Z,69.34
2018-09-08T03:12:26.717Z,69.62
2018-09-08T03:14:19.687Z,70.67
2018-09-08T03:15:19.637Z,70.77
2018-09-08T03:17:12.551Z,70.20
2018-09-08T03:18:12.559Z,70.45
2018-09-08T03:20:05.472Z,70.67
2018-09-08T03:21:05.480Z,70.92
2018-09-08T03:22:58.413Z,70.67
2018-09-08T03:23:58.403Z,70.48
2018-09-08T03:25:51.312Z,71.02
2018-09-08T03:26:51.320Z,71.25
2018-09-08T03:28:44.230Z,71.15
2018-09-08T03:29:44.240Z,71.12
2018-09-08T03:31:37.154Z,71.63
2018-09-08T03:32:37.159Z,71.41
2018-09-08T03:34:30.072Z,71.12
2018-09-08T03:35:30.090Z,70.96
2018-09-08T03:37:23.008Z,70.92
2018-09-08T03:38:23.011Z,71.12
2018-09-08T03:40:15.914Z,71.34
2018-09-08T03:41:15.931Z,71.21
2018-09-08T03:43:08.847Z,71.21
2018-09-08T03:44:08.875Z,71.78
2018-09-08T03:46:02.026Z,71.98
2018-09-08T03:47:01.900Z,71.88
2018-09-08T03:48:54.703Z,71.98
2018-09-08T03:49:54.714Z,71.98
2018-09-08T03:51:47.665Z,71.98
2018-09-08T03:52:47.663Z,71.78
2018-09-08T03:54:40.558Z,71.69
2018-09-08T03:55:40.581Z,71.78
2018-09-08T03:57:33.488Z,72.26
2018-09-08T03:58:33.497Z,72.45
2018-09-08T04:00:26.404Z,72.64
2018-09-08T04:01:26.699Z,73.03
2018-09-08T04:03:19.337Z,73.22
2018-09-08T04:04:19.344Z,73.03
2018-09-08T04:06:12.245Z,72.93
2018-09-08T04:07:12.262Z,73.79
2018-09-08T04:09:05.180Z,73.32
2018-09-08T04:10:05.185Z,73.32
2018-09-08T04:11:58.095Z,73.79
2018-09-08T04:12:58.102Z,73.98
2018-09-08T04:14:51.014Z,74.17
2018-09-08T04:15:51.021Z,74.08
2018-09-08T04:17:43.935Z,73.98
2018-09-08T04:18:43.941Z,74.17
2018-09-08T04:20:36.847Z,74.93
2018-09-08T04:21:36.862Z,75.03
2018-09-08T04:23:29.772Z,74.84
2018-09-08T04:24:29.782Z,74.65
2018-09-08T04:26:22.685Z,75.03
2018-09-08T04:27:22.700Z,74.65
2018-09-08T04:29:15.616Z,74.84
2018-09-08T04:30:15.627Z,74.93
2018-09-08T04:32:08.528Z,74.65
2018-09-08T04:33:08.542Z,74.55
2018-09-08T04:35:01.452Z,75.03
2018-09-08T04:36:01.461Z,74.93
2018-09-08T04:37:54.374Z,74.93
2018-09-08T04:38:54.385Z,74.74
2018-09-08T04:40:47.287Z,75.13
2018-09-08T04:41:47.301Z,74.93
2018-09-08T04:43:40.214Z,75.32
2018-09-08T04:44:40.222Z,75.32
2018-09-08T04:46:33.125Z,75.51
2018-09-08T04:47:33.142Z,75.42
2018-09-08T04:49:26.055Z,75.22
2018-09-08T04:50:26.062Z,75.13
2018-09-08T04:52:18.964Z,75.60
2018-09-08T04:53:18.982Z,75.42
2018-09-08T04:55:11.895Z,75.51
2018-09-08T04:56:11.906Z,75.60
2018-09-08T04:58:04.809Z,75.79
2018-09-08T04:59:04.826Z,76.08
2018-09-08T05:00:57.735Z,75.98
2018-09-08T05:01:57.741Z,75.89
2018-09-08T05:03:50.655Z,75.60
2018-09-08T05:04:50.663Z,75.42
2018-09-08T05:06:43.565Z,75.13
2018-09-08T05:07:43.583Z,75.60
2018-09-08T05:09:36.496Z,75.22
2018-09-08T05:10:36.507Z,75.51
2018-09-08T05:12:29.407Z,75.70
2018-09-08T05:13:29.424Z,75.51
2018-09-08T05:15:22.338Z,75.64
2018-09-08T05:16:22.345Z,75.74
2018-09-08T05:18:15.246Z,75.42
2018-09-08T05:19:15.264Z,75.70
2018-09-08T05:21:08.177Z,75.93
2018-09-08T05:22:08.186Z,75.89
2018-09-08T05:24:01.086Z,75.74
2018-09-08T05:25:01.102Z,75.70
2018-09-08T05:26:54.016Z,75.93
2018-09-08T05:27:54.069Z,75.54
2018-09-08T05:29:46.933Z,75.54
2018-09-08T05:30:46.942Z,75.64
2018-09-08T05:32:39.843Z,75.35
2018-09-08T05:33:39.863Z,75.35
2018-09-08T05:35:32.780Z,74.88
2018-09-08T05:36:32.786Z,75.35
2018-09-08T05:38:25.687Z,75.07
2018-09-08T05:39:25.705Z,75.45
2018-09-08T05:41:18.622Z,75.35
2018-09-08T05:42:18.624Z,75.07
2018-09-08T05:44:12.084Z,75.26
2018-09-08T05:45:11.545Z,74.98
2018-09-08T05:47:04.460Z,75.01
2018-09-08T05:48:04.466Z,74.88
2018-09-08T05:49:57.380Z,74.53
2018-09-08T05:50:57.390Z,74.91
2018-09-08T05:52:50.289Z,75.01
2018-09-08T05:53:50.308Z,75.01
2018-09-08T05:55:43.223Z,74.15
2018-09-08T05:56:43.233Z,74.24
2018-09-08T05:58:36.193Z,73.77
2018-09-08T05:59:36.161Z,74.05
2018-09-08T06:01:29.068Z,74.05
2018-09-08T06:02:29.082Z,74.19
2018-09-08T06:04:21.986Z,74.09
2018-09-08T06:05:22.005Z,73.94
2018-09-08T06:07:14.926Z,71.87
2018-09-08T06:08:14.937Z,71.52
2018-09-08T06:10:07.885Z,69.64
2018-09-08T06:11:07.877Z,67.44
2018-09-08T06:13:00.774Z,66.86
2018-09-08T06:14:00.789Z,66.22
2018-09-08T06:15:53.702Z,65.39
2018-09-08T06:16:54.247Z,64.34
2018-09-08T06:18:46.624Z,63.32
2018-09-08T06:19:46.662Z,62.84
2018-09-08T06:21:39.561Z,62.07
2018-09-08T06:22:39.570Z,61.40
2018-09-08T06:24:32.537Z,62.01
2018-09-08T06:25:32.541Z,60.21
2018-09-08T06:27:25.425Z,59.02
2018-09-08T06:28:25.501Z,58.25
2018-09-08T06:30:18.345Z,56.67
2018-09-08T06:31:18.369Z,56.20
2018-09-08T06:33:11.285Z,53.23
2018-09-08T06:34:11.299Z,53.23
2018-09-08T06:36:04.213Z,53.14
2018-09-08T06:37:04.229Z,52.75
2018-09-08T06:38:57.247Z,53.05
2018-09-08T06:39:57.226Z,52.95
2018-09-08T06:41:50.125Z,53.14
2018-09-08T06:42:50.138Z,53.33
2018-09-08T06:44:43.098Z,53.31
2018-09-08T06:45:43.076Z,53.88
2018-09-08T06:47:35.994Z,55.04
2018-09-08T06:48:36.008Z,55.30
2018-09-08T06:50:28.923Z,56.62
2018-09-08T06:51:28.947Z,57.75
2018-09-08T06:53:21.867Z,59.16
2018-09-08T06:54:21.878Z,59.06
2018-09-08T06:56:14.793Z,60.28
2018-09-08T06:57:14.809Z,60.95
2018-09-08T06:59:07.728Z,61.59
2018-09-08T07:00:07.745Z,61.69
2018-09-08T07:02:00.711Z,63.32
2018-09-08T07:03:00.673Z,63.22
2018-09-08T07:04:53.587Z,63.99
2018-09-08T07:05:53.609Z,63.51
2018-09-08T07:07:46.526Z,63.99
2018-09-08T07:08:46.539Z,64.66
2018-09-08T07:10:39.453Z,64.82
2018-09-08T07:11:39.470Z,65.11
2018-09-08T07:13:33.386Z,65.11
2018-09-08T07:14:33.398Z,65.20
2018-09-08T07:16:26.334Z,65.49
2018-09-08T07:17:26.349Z,65.68
2018-09-08T07:19:19.265Z,65.49
2018-09-08T07:20:19.268Z,65.39
2018-09-08T07:22:12.176Z,66.55
2018-09-08T07:23:12.208Z,66.35
2018-09-08T07:25:05.118Z,65.39
2018-09-08T07:26:05.128Z,65.30
2018-09-08T07:27:58.051Z,65.59
2018-09-08T07:28:58.061Z,65.91
2018-09-08T07:30:50.969Z,65.43
2018-09-08T07:31:50.993Z,64.85
2018-09-08T07:33:43.907Z,65.62
2018-09-08T07:34:43.919Z,65.05
2018-09-08T07:36:36.827Z,64.18
2018-09-08T07:37:36.849Z,64.22
2018-09-08T07:39:29.766Z,65.27
2018-09-08T07:40:29.778Z,64.69
2018-09-08T07:42:22.689Z,64.31
2018-09-08T07:43:22.706Z,63.73
2018-09-08T07:45:15.623Z,63.92
2018-09-08T07:46:15.660Z,63.38
2018-09-08T07:48:08.547Z,63.57
2018-09-08T07:49:08.567Z,62.81
2018-09-08T07:51:01.487Z,62.32
2018-09-08T07:52:01.499Z,62.52
2018-09-08T07:53:54.483Z,61.97
2018-09-08T07:54:54.436Z,62.16
2018-09-08T07:56:47.343Z,61.68
2018-09-08T07:57:47.370Z,61.71
2018-09-08T07:59:40.299Z,60.75
2018-09-08T08:00:40.300Z,60.27
2018-09-08T08:02:33.215Z,60.37
2018-09-08T08:03:33.236Z,60.27
2018-09-08T08:05:26.157Z,60.08
2018-09-08T08:06:26.171Z,60.17
2018-09-08T08:08:19.087Z,59.50
2018-09-08T08:09:19.106Z,60.17
2018-09-08T08:11:12.027Z,60.46
2018-09-08T08:12:12.041Z,60.56
2018-09-08T08:14:04.963Z,60.37
2018-09-08T08:15:04.977Z,59.31
2018-09-08T08:16:57.892Z,60.37
2018-09-08T08:17:57.912Z,60.08
2018-09-08T08:19:50.832Z,60.17
2018-09-08T08:20:50.844Z,60.08
2018-09-08T08:22:43.759Z,59.69
2018-09-08T08:23:43.779Z,60.27
2018-09-08T08:25:36.708Z,60.08
2018-09-08T08:26:36.722Z,59.41
2018-09-08T08:28:29.638Z,60.08
2018-09-08T08:29:29.656Z,60.08
2018-09-08T08:31:22.577Z,59.79
2018-09-08T08:32:22.591Z,60.21
2018-09-08T08:34:15.509Z,59.15
2018-09-08T08:35:15.532Z,59.53
2018-09-08T08:37:08.489Z,59.53
2018-09-08T08:38:08.469Z,59.63
2018-09-08T08:40:01.395Z,58.60
2018-09-08T08:41:01.400Z,58.40
2018-09-08T08:42:54.312Z,57.99
2018-09-08T08:43:54.334Z,58.47
2018-09-08T08:45:47.254Z,58.28
2018-09-08T08:46:47.270Z,59.05
2018-09-08T08:48:40.179Z,59.15
2018-09-08T08:49:40.221Z,59.24
2018-09-08T08:51:33.121Z,60.01
2018-09-08T08:52:33.215Z,60.21
2018-09-08T08:54:26.047Z,59.37
2018-09-08T08:55:26.071Z,58.60
2018-09-08T08:57:18.994Z,58.70
2018-09-08T08:58:19.004Z,58.60
2018-09-08T09:00:11.917Z,58.70
2018-09-08T09:01:11.942Z,58.60
2018-09-08T09:03:04.865Z,58.60
2018-09-08T09:04:04.879Z,58.31
2018-09-08T09:05:57.805Z,57.83
2018-09-08T09:06:58.399Z,58.31
2018-09-08T09:08:50.749Z,58.02
2018-09-08T09:09:50.752Z,58.15
2018-09-08T09:11:43.677Z,58.12
2018-09-08T09:12:43.692Z,58.53
2018-09-08T09:14:37.063Z,58.53
2018-09-08T09:15:36.855Z,58.15
2018-09-08T09:17:29.545Z,57.57
2018-09-08T09:18:29.991Z,57.86
2018-09-08T09:20:22.471Z,57.09
2018-09-08T09:21:29.616Z,57.21
2018-09-08T09:23:15.654Z,56.92
2018-09-08T09:24:15.958Z,57.12
2018-09-08T09:26:08.342Z,56.54
2018-09-08T09:27:08.358Z,56.35
2018-09-08T09:29:02.292Z,56.05
2018-09-08T09:30:02.295Z,55.38
2018-09-08T09:31:55.220Z,55.09
2018-09-08T09:32:55.229Z,55.48
2018-09-08T09:34:48.143Z,54.93
2018-09-08T09:35:48.168Z,54.90
2018-09-08T09:37:41.091Z,54.06
2018-09-08T09:38:41.110Z,53.58
2018-09-08T09:40:34.018Z,54.16
2018-09-08T09:41:34.041Z,53.74
2018-09-08T09:43:26.962Z,53.27
2018-09-08T09:44:26.983Z,53.19
2018-09-08T09:46:19.890Z,53.39
2018-09-08T09:47:19.915Z,53.39
2018-09-08T09:49:12.842Z,53.74
2018-09-08T09:50:12.854Z,54.06
2018-09-08T09:52:05.789Z,53.48
2018-09-08T09:53:05.831Z,53.00
2018-09-08T09:54:58.745Z,53.09
2018-09-08T09:55:58.756Z,52.23
2018-09-08T09:57:51.698Z,52.13
2018-09-08T09:58:51.695Z,51.07
2018-09-08T10:00:44.635Z,50.59
2018-09-08T10:01:44.659Z,50.40
2018-09-08T10:03:37.584Z,49.91
2018-09-08T10:04:37.600Z,50.30
2018-09-08T10:06:30.532Z,49.05
2018-09-08T10:07:30.537Z,49.53
2018-09-08T10:09:23.474Z,50.59
2018-09-08T10:10:23.482Z,50.59
2018-09-08T10:12:16.414Z,49.91
2018-09-08T10:13:16.422Z,50.04
2018-09-08T10:15:09.366Z,49.15
2018-09-08T10:16:09.359Z,49.24
2018-09-08T10:18:02.289Z,49.27
2018-09-08T10:19:02.299Z,49.17
2018-09-08T10:20:55.225Z,49.46
2018-09-08T10:21:55.242Z,48.88
2018-09-08T10:24:04.348Z,47.36
2018-09-08T10:24:48.180Z,46.11
2018-09-08T10:26:41.108Z,45.72
2018-09-08T10:27:41.123Z,44.76
2018-09-08T10:29:34.465Z,44.56
2018-09-08T10:30:34.086Z,45.04
2018-09-08T10:32:26.980Z,46.01
2018-09-08T10:33:27.006Z,46.88
2018-09-08T10:35:19.930Z,46.69
2018-09-08T10:36:19.945Z,46.71
2018-09-08T10:38:12.879Z,45.94
2018-09-08T10:39:12.905Z,45.26
2018-09-08T10:41:05.830Z,45.94
2018-09-08T10:42:05.851Z,45.96
2018-09-08T10:43:58.764Z,45.57
2018-09-08T10:44:58.791Z,45.00
2018-09-08T10:46:51.717Z,44.03
2018-09-08T10:47:51.734Z,43.35
2018-09-08T10:49:44.656Z,44.22
2018-09-08T10:50:44.679Z,45.28
2018-09-08T10:52:37.605Z,44.20
2018-09-08T10:53:37.625Z,43.64
2018-09-08T10:55:30.551Z,43.62
2018-09-08T10:56:30.570Z,43.81
2018-09-08T10:58:23.493Z,42.97
2018-09-08T10:59:23.521Z,43.26
2018-09-08T11:01:16.447Z,44.03
2018-09-08T11:02:16.752Z,42.97
2018-09-08T11:04:09.382Z,41.13
2018-09-08T11:05:09.463Z,41.52
2018-09-08T11:07:02.338Z,41.83
2018-09-08T11:08:02.360Z,42.02
2018-09-08T11:09:55.274Z,42.70
2018-09-08T11:10:55.301Z,42.21
2018-09-08T11:12:48.243Z,40.19
2018-09-08T11:13:48.245Z,41.23
2018-09-08T11:15:41.209Z,41.71
2018-09-08T11:16:41.190Z,41.91
2018-09-08T11:18:34.109Z,43.35
2018-09-08T11:19:34.133Z,43.52
2018-09-08T11:21:27.063Z,43.26
2018-09-08T11:22:27.086Z,43.91
2018-09-08T11:24:19.997Z,43.62
2018-09-08T11:25:20.042Z,43.52
2018-09-08T11:27:13.119Z,43.52
2018-09-08T11:28:13.136Z,43.04
2018-09-08T11:30:06.055Z,43.14
2018-09-08T11:31:06.082Z,43.21
2018-09-08T11:32:59.031Z,43.60
2018-09-08T11:33:59.032Z,43.70
2018-09-08T11:35:51.955Z,44.18
2018-09-08T11:36:51.971Z,44.18
2018-09-08T11:38:44.905Z,44.56
2018-09-08T11:39:44.917Z,44.56
2018-09-08T11:41:37.846Z,44.85
2018-09-08T11:42:37.859Z,45.14
2018-09-08T11:44:30.781Z,45.53
2018-09-08T11:45:30.811Z,45.45
2018-09-08T11:47:23.756Z,45.65
2018-09-08T11:48:23.757Z,44.68
2018-09-08T11:50:16.666Z,44.03
2018-09-08T11:51:16.698Z,43.64
2018-09-08T11:53:09.647Z,43.06
2018-09-08T11:54:09.640Z,43.26
2018-09-08T11:56:02.558Z,42.39
2018-09-08T11:57:02.583Z,42.68
2018-09-08T11:58:55.547Z,41.91
2018-09-08T11:59:55.535Z,42.29
2018-09-08T12:01:48.455Z,43.16
2018-09-08T12:02:48.504Z,43.45
2018-09-08T12:04:41.405Z,42.97
2018-09-08T12:05:41.442Z,42.97
2018-09-08T12:07:34.359Z,43.26
2018-09-08T12:08:34.374Z,42.87
2018-09-08T12:10:27.307Z,43.16
2018-09-08T12:11:27.332Z,43.26
2018-09-08T12:13:20.288Z,44.01
2018-09-08T12:14:20.318Z,44.42
2018-09-08T12:16:13.222Z,43.64
2018-09-08T12:17:13.253Z,42.97
2018-09-08T12:19:06.472Z,42.94
2018-09-08T12:20:06.440Z,43.52
2018-09-08T12:21:59.372Z,44.42
2018-09-08T12:22:59.408Z,43.35
2018-09-08T12:24:52.336Z,44.03
2018-09-08T12:25:52.343Z,44.22
2018-09-08T12:27:45.267Z,43.66
2018-09-08T12:28:45.292Z,43.28
2018-09-08T12:30:38.388Z,43.18
2018-09-08T12:31:38.235Z,42.72
2018-09-08T12:33:31.165Z,42.43
2018-09-08T12:34:31.183Z,42.04
2018-09-08T12:36:24.112Z,42.04
2018-09-08T12:37:24.134Z,42.16
2018-09-08T12:39:17.286Z,41.67
2018-09-08T12:40:17.310Z,40.52
2018-09-08T12:42:10.230Z,40.23
2018-09-08T12:43:10.255Z,40.69
2018-09-08T12:45:03.268Z,41.39
2018-09-08T12:46:03.311Z,40.88
2018-09-08T12:47:56.117Z,42.24
2018-09-08T12:48:56.146Z,41.66
2018-09-08T12:50:49.101Z,41.17
2018-09-08T12:51:49.095Z,41.35
2018-09-08T12:53:42.039Z,40.47
2018-09-08T12:54:42.034Z,40.19
2018-09-08T12:56:34.947Z,41.05
2018-09-08T12:57:34.976Z,40.47
2018-09-08T12:59:27.940Z,41.35
2018-09-08T13:00:27.932Z,41.63
2018-09-08T13:02:20.840Z,40.19
2018-09-08T13:03:20.872Z,40.38
2018-09-08T13:05:13.799Z,40.38
2018-09-08T13:06:13.812Z,40.47
2018-09-08T13:08:06.735Z,40.28
2018-09-08T13:09:06.760Z,40.47
2018-09-08T13:10:59.689Z,41.54
2018-09-08T13:11:59.723Z,40.78
2018-09-08T13:13:52.627Z,39.34
2018-09-08T13:14:52.657Z,39.62
2018-09-08T13:16:46.577Z,40.30
2018-09-08T13:17:46.599Z,40.30
2018-09-08T13:19:39.524Z,39.14
2018-09-08T13:20:39.547Z,40.13
2018-09-08T13:22:32.463Z,39.43
2018-09-08T13:23:32.493Z,39.14
2018-09-08T13:25:25.427Z,39.26
2018-09-08T13:26:25.434Z,39.43
2018-09-08T13:28:18.395Z,38.78
2018-09-08T13:29:18.411Z,38.89
2018-09-08T13:31:11.337Z,37.92
2018-09-08T13:32:11.356Z,38.02
2018-09-08T13:34:04.275Z,38.60
2018-09-08T13:35:04.301Z,37.82
2018-09-08T13:36:57.237Z,37.63
2018-09-08T13:37:57.260Z,38.21
2018-09-08T13:39:50.176Z,37.63
2018-09-08T13:40:50.192Z,37.82
2018-09-08T13:42:43.117Z,37.54
2018-09-08T13:43:43.133Z,37.73
2018-09-08T13:45:36.078Z,37.92
2018-09-08T13:46:36.099Z,37.54
2018-09-08T13:48:29.012Z,37.54
2018-09-08T13:49:29.040Z,37.44
2018-09-08T13:51:21.970Z,38.21
2018-09-08T13:52:21.987Z,36.86
2018-09-08T13:54:14.905Z,36.57
2018-09-08T13:55:14.932Z,37.34
2018-09-08T13:57:07.929Z,36.47
2018-09-08T13:58:07.902Z,36.74
2018-09-08T14:00:00.822Z,37.32
2018-09-08T14:01:00.847Z,37.04
2018-09-08T14:02:53.782Z,37.70
2018-09-08T14:03:53.802Z,37.70
2018-09-08T14:05:46.761Z,38.37
2018-09-08T14:06:46.764Z,37.70
2018-09-08T14:08:39.686Z,37.30
2018-09-08T14:09:39.710Z,36.92
2018-09-08T14:11:32.633Z,37.98
2018-09-08T14:12:32.657Z,37.70
2018-09-08T14:14:25.603Z,38.37
2018-09-08T14:15:25.673Z,38.37
2018-09-08T14:17:18.531Z,37.81
2018-09-08T14:18:18.558Z,37.04
2018-09-08T14:20:11.471Z,37.50
2018-09-08T14:21:11.500Z,38.08
2018-09-08T14:23:04.422Z,37.98
2018-09-08T14:24:04.454Z,38.18
2018-09-08T14:25:57.355Z,37.70
2018-09-08T14:26:57.404Z,38.18
2018-09-08T14:28:50.310Z,38.46
2018-09-08T14:29:50.323Z,38.06
2018-09-08T14:31:43.273Z,37.96
2018-09-08T14:32:43.293Z,37.98
2018-09-08T14:34:36.213Z,38.54
2018-09-08T14:35:36.244Z,38.06
2018-09-08T14:37:29.164Z,38.45
2018-09-08T14:38:29.182Z,38.45
2018-09-08T14:40:22.104Z,38.16
2018-09-08T14:41:22.131Z,38.64
2018-09-08T14:43:15.056Z,38.74
2018-09-08T14:44:15.072Z,38.83
2018-09-08T14:46:07.991Z,38.64
2018-09-08T14:47:08.022Z,38.83
2018-09-08T14:49:00.956Z,38.74
2018-09-08T14:50:00.964Z,38.93
2018-09-08T14:51:53.884Z,38.74
2018-09-08T14:52:53.910Z,39.20
2018-09-08T14:54:46.834Z,39.39
2018-09-08T14:55:46.856Z,39.11
2018-09-08T14:57:39.778Z,39.20
2018-09-08T14:58:39.795Z,39.29
2018-09-08T15:00:32.711Z,39.49
2018-09-08T15:01:32.744Z,39.39
2018-09-08T15:03:25.671Z,39.49
2018-09-08T15:04:25.682Z,39.78
2018-09-08T15:06:18.617Z,40.34
2018-09-08T15:07:18.620Z,40.15
2018-09-08T15:09:11.544Z,39.47
2018-09-08T15:10:11.564Z,39.37
2018-09-08T15:12:04.479Z,38.89
2018-09-08T15:13:04.502Z,39.37
2018-09-08T15:14:57.429Z,40.05
2018-09-08T15:15:57.445Z,39.47
2018-09-08T15:17:50.373Z,38.70
2018-09-08T15:18:50.399Z,39.74
2018-09-08T15:20:43.308Z,40.24
2018-09-08T15:21:43.354Z,40.15
2018-09-08T15:23:36.258Z,40.72
2018-09-08T15:24:36.340Z,41.60
2018-09-08T15:26:29.253Z,40.15
2018-09-08T15:27:29.232Z,40.72
2018-09-08T15:29:22.161Z,40.44
2018-09-08T15:30:22.174Z,40.05
2018-09-08T15:32:15.094Z,40.53
2018-09-08T15:33:15.116Z,40.44
2018-09-08T15:35:08.039Z,40.15
2018-09-08T15:36:08.055Z,40.82
2018-09-08T15:38:00.996Z,40.32
2018-09-08T15:39:00.996Z,40.42
2018-09-08T15:40:53.914Z,41.11
2018-09-08T15:41:53.940Z,40.90
2018-09-08T15:43:46.867Z,41.88
2018-09-08T15:44:46.882Z,41.69
2018-09-08T15:46:39.796Z,41.69
2018-09-08T15:47:39.822Z,41.67
2018-09-08T15:49:32.755Z,41.28
2018-09-08T15:50:32.771Z,41.67
2018-09-08T15:52:25.696Z,41.50
2018-09-08T15:53:25.719Z,41.48
2018-09-08T15:55:18.643Z,42.08
2018-09-08T15:56:18.656Z,42.15
2018-09-08T15:58:11.641Z,41.77
2018-09-08T15:59:11.596Z,41.67
2018-09-08T16:01:04.545Z,41.96
2018-09-08T16:02:04.539Z,42.15
2018-09-08T16:03:57.491Z,42.05
2018-09-08T16:04:57.480Z,42.63
2018-09-08T16:06:50.393Z,41.86
2018-09-08T16:07:50.419Z,42.35
2018-09-08T16:09:43.346Z,42.93
2018-09-08T16:10:43.409Z,41.57
2018-09-08T16:12:36.279Z,42.44
2018-09-08T16:13:36.315Z,42.93
2018-09-08T16:15:29.235Z,42.83
2018-09-08T16:16:29.245Z,42.83
2018-09-08T16:18:23.162Z,43.12
2018-09-08T16:19:23.185Z,43.00
2018-09-08T16:21:16.107Z,43.21
2018-09-08T16:22:16.123Z,43.21
2018-09-08T16:24:09.046Z,43.70
2018-09-08T16:25:09.064Z,43.41
2018-09-08T16:27:01.989Z,43.12
2018-09-08T16:28:02.006Z,43.12
2018-09-08T16:29:55.038Z,43.19
2018-09-08T16:30:54.951Z,42.90
2018-09-08T16:32:47.876Z,43.00
2018-09-08T16:33:47.893Z,43.00
2018-09-08T16:35:40.840Z,43.00
2018-09-08T16:36:40.835Z,43.10
2018-09-08T16:38:33.811Z,42.90
2018-09-08T16:39:33.773Z,43.29
2018-09-08T16:41:26.702Z,43.10
2018-09-08T16:42:26.714Z,43.10
2018-09-08T16:44:19.669Z,43.00
2018-09-08T16:45:19.653Z,43.10
2018-09-08T16:47:12.576Z,43.48
2018-09-08T16:48:12.591Z,43.67
2018-09-08T16:50:05.586Z,43.29
2018-09-08T16:51:05.524Z,43.58
2018-09-08T16:52:58.488Z,43.48
2018-09-08T16:53:58.506Z,43.58
2018-09-08T16:55:51.454Z,43.87
2018-09-08T16:56:51.461Z,43.77
2018-09-08T16:58:44.377Z,44.15
2018-09-08T16:59:44.400Z,44.35
2018-09-08T17:01:37.342Z,44.25
2018-09-08T17:02:37.347Z,44.25
2018-09-08T17:04:30.262Z,44.25
2018-09-08T17:05:30.399Z,44.15
2018-09-08T17:07:23.210Z,44.25
2018-09-08T17:08:23.227Z,44.32
2018-09-08T17:10:16.151Z,44.62
2018-09-08T17:11:16.164Z,44.23
2018-09-08T17:13:09.083Z,44.23
2018-09-08T17:14:09.101Z,44.62
2018-09-08T17:16:02.016Z,44.90
2018-09-08T17:17:02.042Z,44.42
2018-09-08T17:18:54.968Z,44.90
2018-09-08T17:19:54.983Z,45.10
2018-09-08T17:21:47.907Z,44.90
2018-09-08T17:22:47.992Z,44.90
2018-09-08T17:24:40.841Z,44.81
2018-09-08T17:25:40.868Z,45.07
2018-09-08T17:27:33.814Z,44.59
2018-09-08T17:28:33.806Z,44.31
2018-09-08T17:30:26.727Z,45.56
2018-09-08T17:31:26.745Z,45.46
2018-09-08T17:33:19.683Z,45.07
2018-09-08T17:34:19.679Z,45.65
2018-09-08T17:36:12.594Z,45.56
2018-09-08T17:37:12.671Z,45.46
2018-09-08T17:39:05.548Z,45.84
2018-09-08T17:40:05.560Z,45.94
2018-09-08T17:41:58.492Z,46.42
2018-09-08T17:42:58.496Z,46.71
2018-09-08T17:44:51.421Z,45.94
2018-09-08T17:45:51.451Z,46.04
2018-09-08T17:47:44.356Z,46.91
2018-09-08T17:48:44.369Z,46.71
2018-09-08T17:50:37.286Z,46.71
2018-09-08T17:51:37.328Z,46.71
2018-09-08T17:53:30.233Z,46.81
2018-09-08T17:54:30.244Z,46.81
2018-09-08T17:56:23.151Z,46.62
2018-09-08T17:57:23.217Z,46.81
2018-09-08T17:59:16.114Z,46.23
2018-09-08T18:00:16.131Z,46.62
2018-09-08T18:02:09.048Z,46.71
2018-09-08T18:03:09.067Z,46.81
2018-09-08T18:05:01.995Z,46.62
2018-09-08T18:06:02.010Z,46.50
2018-09-08T18:07:54.935Z,46.88
2018-09-08T18:08:54.947Z,47.27
2018-09-08T18:10:47.854Z,46.69
2018-09-08T18:11:47.942Z,47.17
2018-09-08T18:13:40.798Z,47.08
2018-09-08T18:14:40.815Z,47.27
2018-09-08T18:16:33.728Z,47.27
2018-09-08T18:17:33.751Z,47.56
2018-09-08T18:19:26.673Z,47.75
2018-09-08T18:20:26.687Z,47.56
2018-09-08T18:22:19.610Z,47.56
2018-09-08T18:23:19.635Z,47.85
2018-09-08T18:25:12.555Z,47.46
2018-09-08T18:26:12.570Z,48.13
2018-09-08T18:28:05.483Z,48.61
2018-09-08T18:29:05.507Z,48.33
2018-09-08T18:30:58.431Z,48.43
2018-09-08T18:31:58.446Z,48.33
2018-09-08T18:33:51.364Z,48.52